Time;durP1;ratioP1;P1;durP2;ratioP2;P2;SDS_P1;SDS_P2;PMS_P1;PMS_P2;Temp;Humidity;BMP_temperature;BMP_pressure;BME280_temperature;BME280_humidity;BME280_pressure;Samples;Min_cycle;Max_cycle;Signal;HPM_P1;HPM_P2
2021/03/19 00:01:41;;;;;;;2.55;1.13;;;3.80;99.90;;;3.60;86.12;102223.91;5006086;28;20041;-66
2021/03/19 00:04:08;;;;;;;2.65;1.20;;;3.80;99.90;;;3.61;86.07;102228.31;4989782;28;20068;-65
2021/03/19 00:06:34;;;;;;;1.55;1.20;;;3.80;99.90;;;3.64;85.76;102236.13;5005982;28;20145;-66
2021/03/19 00:09:03;;;;;;;4.50;1.30;;;3.80;99.90;;;3.68;85.51;102242.16;5015152;28;20496;-70
2021/03/19 00:11:29;;;;;;;3.38;1.30;;;3.90;99.90;;;3.75;85.15;102236.13;5004260;28;20477;-66
2021/03/19 00:13:55;;;;;;;3.28;1.30;;;3.90;99.90;;;3.60;85.79;102245.44;4990608;28;20055;-64
2021/03/19 00:16:21;;;;;;;4.03;1.10;;;3.90;99.90;;;3.65;86.19;102240.53;5010028;28;20041;-63
2021/03/19 00:18:47;;;;;;;1.25;1.17;;;3.90;99.90;;;3.57;86.49;102248.38;5027118;28;20377;-69
2021/03/19 00:21:13;;;;;;;2.33;1.30;;;3.80;99.90;;;3.55;87.10;102243.09;5029689;28;20037;-67
2021/03/19 00:23:39;;;;;;;1.80;0.98;;;3.80;99.90;;;3.47;87.24;102250.06;5028454;28;20029;-63
2021/03/19 00:26:05;;;;;;;2.65;1.13;;;3.70;99.90;;;3.32;88.51;102245.88;5010122;28;20039;-67
2021/03/19 00:28:31;;;;;;;1.83;1.05;;;3.60;99.90;;;3.29;88.63;102250.50;5028480;28;20054;-66
2021/03/19 00:30:57;;;;;;;2.85;1.02;;;3.50;99.90;;;3.19;89.27;102265.66;5028872;28;20488;-67
2021/03/19 00:33:23;;;;;;;2.83;1.15;;;3.50;99.90;;;3.10;90.11;102257.44;5025110;28;20215;-67
2021/03/19 00:35:50;;;;;;;3.92;1.42;;;3.40;99.90;;;3.10;90.59;102263.66;5026232;28;20173;-70
2021/03/19 00:38:16;;;;;;;3.28;1.23;;;3.30;99.90;;;3.00;91.01;102268.03;5012061;28;20037;-66
2021/03/19 00:40:42;;;;;;;3.90;1.65;;;3.30;99.90;;;3.05;91.30;102265.00;5029407;28;20072;-69
2021/03/19 00:43:10;;;;;;;1.10;1.00;;;3.20;99.90;;;2.95;91.25;102272.03;5010388;28;20034;-67
2021/03/19 00:45:36;;;;;;;5.53;1.52;;;3.20;99.90;;;2.90;92.05;102277.78;5023334;28;20032;-69
2021/03/19 00:48:03;;;;;;;2.13;1.15;;;3.10;99.90;;;2.81;92.24;102279.34;5011923;28;20038;-69
2021/03/19 00:50:39;;;;;;;1.65;1.05;;;3.10;99.90;;;2.82;92.58;102280.19;5028599;28;20021;-70
2021/03/19 00:53:05;;;;;;;2.08;1.35;;;3.10;99.90;;;2.73;92.94;102286.22;5029423;28;20034;-66
2021/03/19 00:55:32;;;;;;;1.30;1.10;;;3.00;99.90;;;2.64;93.72;102281.53;4995367;28;20038;-70
2021/03/19 00:57:58;;;;;;;1.13;1.02;;;2.90;99.90;;;2.73;93.15;102280.84;5027494;28;20042;-68
2021/03/19 01:00:30;;;;;;;1.60;1.10;;;2.90;99.90;;;2.60;94.10;102282.78;5018412;28;20345;-69
2021/03/19 01:02:57;;;;;;;2.83;1.35;;;2.90;99.90;;;2.54;94.56;102276.84;5011901;28;20025;-72
2021/03/19 01:05:47;;;;;;;5.22;1.60;;;2.80;99.90;;;2.52;94.56;102284.16;5028560;28;20297;-70
2021/03/19 01:08:15;;;;;;;3.67;1.20;;;2.80;99.90;;;2.49;94.63;102281.69;5022863;28;20120;-71
2021/03/19 01:10:56;;;;;;;3.60;1.10;;;2.70;99.90;;;2.45;95.04;102282.06;5028765;28;20037;-72
2021/03/19 01:13:24;;;;;;;4.75;1.65;;;2.70;99.90;;;2.54;94.74;102282.22;5025887;28;20061;-71
2021/03/19 01:15:51;;;;;;;6.10;1.58;;;2.70;99.90;;;2.36;95.68;102278.22;5028456;28;20091;-70
2021/03/19 01:18:23;;;;;;;4.53;1.48;;;2.60;99.90;;;2.39;95.83;102277.97;5011862;28;20057;-70
2021/03/19 01:20:50;;;;;;;5.50;1.58;;;2.60;99.90;;;2.41;96.01;102281.41;5029340;28;20072;-69
2021/03/19 01:23:17;;;;;;;3.03;1.50;;;2.60;99.90;;;2.40;96.08;102278.84;5014582;28;20049;-66
2021/03/19 01:25:43;;;;;;;1.73;1.15;;;2.50;99.90;;;2.33;96.53;102283.81;4994077;28;20049;-63
2021/03/19 01:28:10;;;;;;;3.90;1.25;;;2.50;99.90;;;2.27;96.40;102286.94;5046231;28;20523;-68
2021/03/19 01:30:39;;;;;;;3.35;1.60;;;2.50;99.90;;;2.21;96.51;102290.06;4996758;28;20044;-62
2021/03/19 01:33:06;;;;;;;4.25;2.20;;;2.40;99.90;;;2.04;97.45;102293.09;5014145;28;20037;-70
2021/03/19 01:35:35;;;;;;;4.25;1.42;;;2.40;99.90;;;2.03;98.59;102291.41;5013995;28;20041;-62
2021/03/19 01:38:03;;;;;;;2.72;1.85;;;2.30;99.90;;;2.00;98.63;102296.97;5020745;28;20097;-65
2021/03/19 01:40:39;;;;;;;3.15;1.38;;;2.30;99.90;;;1.90;98.53;102295.94;5006350;28;20041;-73
2021/03/19 01:43:10;;;;;;;8.02;1.77;;;2.30;99.90;;;1.99;99.10;102306.00;5047878;28;20492;-62
2021/03/19 01:46:22;;;;;;;3.22;1.63;;;2.20;99.90;;;1.85;99.31;102303.44;5027082;28;20037;-64
2021/03/19 01:49:44;;;;;;;8.43;1.40;;;2.20;99.90;;;1.93;99.70;102307.28;5030440;28;20131;-62
2021/03/19 01:53:06;;;;;;;3.65;1.60;;;2.20;99.90;;;1.84;98.99;102313.31;5027490;28;20056;-61
2021/03/19 01:56:29;;;;;;;2.83;1.50;;;2.10;99.90;;;1.73;100.00;102306.00;5044314;28;20042;-61
2021/03/19 01:59:51;;;;;;;3.88;1.23;;;2.10;99.90;;;1.80;100.00;102312.69;5030750;28;20045;-62
2021/03/19 02:03:13;;;;;;;3.78;1.70;;;2.00;99.90;;;1.74;100.00;102312.25;5025024;28;20038;-66
2021/03/19 02:06:35;;;;;;;3.25;1.48;;;2.00;99.90;;;1.76;100.00;102316.53;5031670;28;20037;-62
2021/03/19 02:09:56;;;;;;;9.52;1.60;;;2.00;99.90;;;1.67;100.00;102311.81;5027452;28;20048;-62
2021/03/19 02:13:18;;;;;;;5.88;1.33;;;2.00;99.90;;;1.71;100.00;102318.66;5031577;28;20121;-64
2021/03/19 02:16:41;;;;;;;2.28;1.30;;;1.90;99.90;;;1.75;100.00;102325.56;5029635;28;20468;-64
2021/03/19 02:20:03;;;;;;;8.35;1.25;;;1.90;99.90;;;1.73;100.00;102322.13;5032459;28;20041;-66
2021/03/19 02:23:25;;;;;;;5.90;1.40;;;1.90;99.90;;;1.64;100.00;102316.53;5032327;28;20048;-69
2021/03/19 02:26:47;;;;;;;7.18;1.90;;;1.90;99.90;;;1.65;100.00;102323.63;5031663;28;20511;-64
2021/03/19 02:30:09;;;;;;;3.47;1.30;;;1.90;99.90;;;1.71;100.00;102321.34;5028793;28;20034;-64
2021/03/19 02:32:38;;;;;;;5.70;1.60;;;1.90;99.90;;;1.64;100.00;102338.84;5026932;28;20114;-66
2021/03/19 02:35:17;;;;;;;3.25;1.98;;;1.90;99.90;;;1.66;100.00;102331.56;5012309;28;20033;-70
2021/03/19 02:37:43;;;;;;;3.25;1.88;;;1.90;99.90;;;1.66;100.00;102331.56;5032542;28;20408;-68
2021/03/19 02:40:17;;;;;;;4.65;1.40;;;1.90;99.90;;;1.65;100.00;102339.72;4998665;28;20056;-70
2021/03/19 02:42:43;;;;;;;8.80;1.80;;;1.90;99.90;;;1.60;100.00;102337.34;5031275;28;20069;-68
2021/03/19 02:45:15;;;;;;;5.25;1.83;;;1.90;99.90;;;1.64;100.00;102343.38;5029135;28;20515;-67
2021/03/19 02:47:41;;;;;;;3.08;1.13;;;1.90;99.90;;;1.54;100.00;102347.66;5031182;28;20057;-69
2021/03/19 02:50:08;;;;;;;8.80;1.67;;;1.80;99.90;;;1.55;100.00;102352.06;5030084;28;20198;-68
2021/03/19 02:52:41;;;;;;;11.88;2.20;;;1.90;99.90;;;1.49;100.00;102355.13;5031133;28;20033;-64
2021/03/19 02:55:11;;;;;;;4.32;1.20;;;1.80;99.90;;;1.50;100.00;102352.34;5013896;28;20030;-69
2021/03/19 02:57:38;;;;;;;4.78;1.25;;;1.80;99.90;;;1.52;100.00;102361.16;5030880;28;20072;-63
2021/03/19 03:00:07;;;;;;;2.33;1.30;;;1.80;99.90;;;1.51;100.00;102359.44;5026554;28;20054;-68
2021/03/19 03:02:34;;;;;;;3.50;1.85;;;1.80;99.90;;;1.61;100.00;102365.91;5030511;28;20042;-66
2021/03/19 03:05:00;;;;;;;3.88;1.55;;;1.70;99.90;;;1.54;100.00;102363.75;5031694;28;20035;-70
2021/03/19 03:07:30;;;;;;;8.70;1.77;;;1.80;99.90;;;1.45;100.00;102371.47;5031035;28;20518;-68
2021/03/19 03:09:57;;;;;;;2.67;1.83;;;1.70;99.90;;;1.40;100.00;102370.03;5015139;28;20041;-66
2021/03/19 03:12:24;;;;;;;3.38;1.30;;;1.70;99.90;;;1.36;100.00;102358.66;5030776;28;20112;-70
2021/03/19 03:14:50;;;;;;;9.43;2.10;;;1.60;99.90;;;1.35;100.00;102366.84;5011718;28;20064;-70
2021/03/19 03:17:16;;;;;;;8.18;2.03;;;1.60;99.90;;;1.23;100.00;102373.00;4975104;28;20053;-62
2021/03/19 03:19:43;;;;;;;3.40;1.58;;;1.60;99.90;;;1.20;100.00;102375.88;5013967;28;20111;-63
2021/03/19 03:22:10;;;;;;;3.97;1.35;;;1.50;99.90;;;1.20;100.00;102382.13;5014965;28;20033;-62
2021/03/19 03:24:36;;;;;;;7.43;1.40;;;1.50;99.90;;;1.20;100.00;102383.94;5014050;28;20476;-68
2021/03/19 03:27:03;;;;;;;5.22;1.27;;;1.50;99.90;;;1.26;100.00;102380.84;4997407;28;20056;-64
2021/03/19 03:29:31;;;;;;;6.15;1.80;;;1.40;99.90;;;1.22;100.00;102373.97;5029627;28;20033;-61
2021/03/19 03:31:57;;;;;;;3.55;1.33;;;1.40;99.90;;;1.14;100.00;102382.50;5031208;28;20072;-68
2021/03/19 03:34:24;;;;;;;4.57;1.63;;;1.40;99.90;;;1.07;100.00;102376.69;5027995;28;20480;-63
2021/03/19 03:36:50;;;;;;;6.43;1.70;;;1.40;99.90;;;1.09;100.00;102380.16;5030106;28;20029;-60
2021/03/19 03:39:25;;;;;;;3.47;1.40;;;1.40;99.90;;;1.07;100.00;102387.44;5031607;28;20044;-64
2021/03/19 03:41:53;;;;;;;3.42;1.50;;;1.40;99.90;;;1.10;100.00;102383.69;5027160;28;20459;-63
2021/03/19 03:44:19;;;;;;;6.65;1.63;;;1.40;99.90;;;0.97;100.00;102391.69;5029229;28;20034;-61
2021/03/19 03:46:45;;;;;;;12.35;1.95;;;1.30;99.90;;;1.00;100.00;102391.47;5030031;28;20148;-63
2021/03/19 03:49:13;;;;;;;4.05;1.75;;;1.30;99.90;;;0.95;100.00;102398.09;5031671;28;20120;-65
2021/03/19 03:51:40;;;;;;;5.75;2.47;;;1.30;99.90;;;0.93;100.00;102390.16;5004090;28;20054;-65
2021/03/19 03:54:06;;;;;;;5.95;1.98;;;1.30;99.90;;;0.95;100.00;102401.63;5026683;28;20506;-62
2021/03/19 03:56:33;;;;;;;3.25;1.20;;;1.20;99.90;;;0.94;100.00;102402.59;5013783;28;20030;-62
2021/03/19 03:58:59;;;;;;;4.93;1.58;;;1.20;99.90;;;1.04;100.00;102405.53;5030538;28;20053;-62
2021/03/19 04:01:26;;;;;;;2.53;1.38;;;1.30;99.90;;;1.15;100.00;102404.81;5030201;28;20043;-62
2021/03/19 04:03:52;;;;;;;4.38;1.77;;;1.30;99.90;;;1.09;100.00;102396.25;5012219;28;20044;-62
2021/03/19 04:06:19;;;;;;;4.63;1.38;;;1.30;99.90;;;1.14;100.00;102411.16;4981452;28;20496;-61
2021/03/19 04:08:45;;;;;;;2.83;1.55;;;1.20;99.90;;;1.03;100.00;102412.72;5029509;28;20037;-62
2021/03/19 04:11:17;;;;;;;5.97;1.77;;;1.20;99.90;;;0.98;100.00;102420.22;5013551;28;20079;-64
2021/03/19 04:13:43;;;;;;;2.92;2.25;;;1.30;99.90;;;1.01;100.00;102419.16;5026416;28;20049;-64
2021/03/19 04:16:11;;;;;;;4.15;2.30;;;1.30;99.90;;;1.00;100.00;102426.34;5030819;28;20104;-64
2021/03/19 04:18:37;;;;;;;5.65;1.90;;;1.30;99.90;;;0.99;100.00;102427.28;5029575;28;20476;-65
2021/03/19 04:21:08;;;;;;;9.68;2.00;;;1.20;99.90;;;1.08;100.00;102431.19;5029773;28;20037;-69
2021/03/19 04:23:37;;;;;;;3.80;1.40;;;1.30;99.90;;;1.02;100.00;102437.78;5028732;28;20435;-66
2021/03/19 04:26:04;;;;;;;3.88;1.95;;;1.20;99.90;;;0.99;100.00;102429.97;5030340;28;20813;-67
2021/03/19 04:28:37;;;;;;;7.60;1.10;;;1.30;99.90;;;0.99;100.00;102432.66;5028585;28;20487;-64
2021/03/19 04:31:05;;;;;;;10.25;1.75;;;1.20;99.90;;;0.93;100.00;102438.41;5034250;28;20044;-61
2021/03/19 04:33:32;;;;;;;7.05;1.55;;;1.20;99.90;;;1.04;100.00;102440.38;5028321;28;20683;-71
2021/03/19 04:36:25;;;;;;;6.43;1.50;;;1.20;99.90;;;1.16;100.00;102441.41;4996765;28;20508;-66
2021/03/19 04:38:52;;;;;;;5.72;1.23;;;1.20;99.90;;;1.10;100.00;102445.38;5023616;28;20061;-66
2021/03/19 04:41:19;;;;;;;1.83;1.45;;;1.30;99.90;;;1.12;100.00;102437.22;5014004;28;20049;-73
2021/03/19 04:43:45;;;;;;;8.98;2.90;;;1.30;99.90;;;1.23;100.00;102434.69;5027235;28;20049;-71
2021/03/19 04:46:10;;;;;;;7.38;1.55;;;1.30;99.90;;;1.33;100.00;102430.44;5012751;28;20435;-73
2021/03/19 04:48:36;;;;;;;10.02;2.05;;;1.30;99.90;;;1.22;100.00;102430.28;4995912;28;20128;-72
2021/03/19 04:51:03;;;;;;;10.80;2.10;;;1.30;99.90;;;1.00;100.00;102426.34;5031307;28;20048;-73
2021/03/19 04:53:29;;;;;;;6.43;2.05;;;1.20;99.90;;;1.05;100.00;102434.94;5027951;28;20091;-72
2021/03/19 04:55:55;;;;;;;6.43;2.20;;;1.30;99.90;;;1.03;100.00;102436.84;5012676;28;20034;-73
2021/03/19 04:58:20;;;;;;;4.68;1.85;;;1.20;99.90;;;1.05;100.00;102437.59;4995329;28;20042;-74
2021/03/19 05:00:46;;;;;;;5.22;1.98;;;1.20;99.90;;;1.11;100.00;102440.88;5012478;28;20116;-72
2021/03/19 05:03:12;;;;;;;4.45;1.60;;;1.20;99.90;;;0.98;100.00;102447.03;5027532;28;20037;-71
2021/03/19 05:05:38;;;;;;;3.97;1.45;;;1.20;99.90;;;0.91;100.00;102451.03;4996364;28;20053;-72
2021/03/19 05:08:04;;;;;;;6.38;2.10;;;1.20;99.90;;;0.99;100.00;102453.25;5029974;28;20067;-72
2021/03/19 05:10:34;;;;;;;2.38;1.17;;;1.20;99.90;;;0.95;100.00;102468.66;5012368;28;20053;-73
2021/03/19 05:13:01;;;;;;;3.53;1.50;;;1.20;99.90;;;0.97;100.00;102465.88;5030207;28;20033;-71
2021/03/19 05:15:32;;;;;;;9.30;1.98;;;1.20;99.90;;;0.86;100.00;102468.38;5012230;28;20025;-73
2021/03/19 05:17:58;;;;;;;9.95;1.98;;;1.20;99.90;;;0.93;100.00;102470.56;5029657;28;20052;-71
2021/03/19 05:20:25;;;;;;;6.43;1.75;;;1.20;99.90;;;0.94;100.00;102469.59;5012991;28;20397;-72
2021/03/19 05:22:51;;;;;;;7.88;1.70;;;1.20;99.90;;;0.92;100.00;102482.25;5029454;28;20095;-73
2021/03/19 05:25:24;;;;;;;6.07;1.80;;;1.20;99.90;;;0.87;100.00;102476.34;5012012;28;20029;-72
2021/03/19 05:27:52;;;;;;;4.00;1.75;;;1.20;99.90;;;0.96;100.00;102474.88;5029434;28;20068;-72
2021/03/19 05:30:21;;;;;;;12.20;2.28;;;1.20;99.90;;;0.98;100.00;102479.19;5025021;28;20064;-73
2021/03/19 05:32:47;;;;;;;9.45;2.20;;;1.20;99.90;;;0.96;100.00;102490.97;5029182;28;20124;-72
2021/03/19 05:35:14;;;;;;;7.78;2.40;;;1.30;99.90;;;1.01;100.00;102492.41;5012963;28;20033;-74
2021/03/19 05:37:40;;;;;;;3.45;1.80;;;1.20;99.90;;;0.93;100.00;102497.38;5012224;28;20417;-72
2021/03/19 05:40:14;;;;;;;8.48;2.72;;;1.30;99.90;;;0.93;100.00;102502.72;5027941;28;20120;-72
2021/03/19 05:42:40;;;;;;;7.80;1.93;;;1.30;99.90;;;0.94;100.00;102498.22;5028650;28;20037;-73
2021/03/19 05:45:26;;;;;;;7.40;3.15;;;1.30;99.90;;;0.96;100.00;102505.22;5027988;28;20072;-73
2021/03/19 05:47:56;;;;;;;4.68;2.45;;;1.30;99.90;;;0.97;100.00;102504.28;5024212;28;20614;-72
2021/03/19 05:50:30;;;;;;;8.80;2.88;;;1.20;99.90;;;0.94;100.00;102508.97;5014313;28;20045;-73
2021/03/19 05:53:09;;;;;;;4.70;2.13;;;1.30;99.90;;;0.97;100.00;102515.00;5033738;28;20029;-72
2021/03/19 05:55:37;;;;;;;7.50;2.53;;;1.40;99.90;;;1.12;100.00;102514.97;5047646;28;20369;-72
2021/03/19 05:58:05;;;;;;;7.35;3.00;;;1.30;99.90;;;1.17;100.00;102515.53;5014641;28;20029;-72
2021/03/19 06:00:31;;;;;;;13.05;2.78;;;1.40;99.90;;;1.17;100.00;102521.75;5014563;28;20072;-73
2021/03/19 06:02:57;;;;;;;7.57;2.53;;;1.40;99.90;;;1.19;100.00;102521.66;5013072;28;20401;-71
2021/03/19 06:05:27;;;;;;;17.23;2.42;;;1.40;99.90;;;1.26;100.00;102520.31;5046560;28;20096;-74
2021/03/19 06:08:01;;;;;;;7.05;2.72;;;1.40;99.90;;;1.34;100.00;102528.72;5015984;28;20017;-73
2021/03/19 06:10:37;;;;;;;6.22;2.85;;;1.50;99.90;;;1.30;100.00;102521.84;5031359;28;20034;-72
2021/03/19 06:13:08;;;;;;;4.65;1.90;;;1.60;99.90;;;1.41;100.00;102530.03;5031752;28;20029;-73
2021/03/19 06:15:50;;;;;;;11.27;2.17;;;1.60;99.90;;;1.51;100.00;102538.34;5029976;28;20508;-71
2021/03/19 06:18:41;;;;;;;6.50;3.10;;;1.70;99.90;;;1.56;100.00;102529.06;5030694;28;20403;-73
2021/03/19 06:21:10;;;;;;;5.93;1.88;;;1.70;99.90;;;1.70;100.00;102537.03;5023947;28;20033;-72
2021/03/19 06:23:39;;;;;;;7.53;1.95;;;1.80;99.90;;;2.26;100.00;102535.03;5033102;28;20069;-73
2021/03/19 06:26:29;;;;;;;5.85;2.28;;;2.10;99.90;;;3.15;100.00;102541.28;5015721;28;20484;-72
2021/03/19 06:29:29;;;;;;;7.32;2.80;;;2.70;99.90;;;4.48;100.00;102534.84;5032001;28;20336;-72
2021/03/19 06:32:17;;;;;;;4.63;2.15;;;3.60;99.90;;;5.67;93.58;102533.31;5027432;28;20033;-73
2021/03/19 06:35:09;;;;;;;5.63;2.33;;;4.50;99.90;;;6.89;86.76;102540.84;5030753;28;20063;-73
2021/03/19 06:37:41;;;;;;;3.72;2.25;;;5.40;99.90;;;7.36;77.73;102543.88;5025785;28;20051;-72
2021/03/19 06:40:36;;;;;;;4.53;1.73;;;6.20;99.90;;;7.93;72.77;102550.44;5014429;28;20042;-73
2021/03/19 06:43:31;;;;;;;7.78;2.90;;;6.90;99.90;;;8.86;67.31;102545.25;5030459;28;20025;-73
2021/03/19 06:46:14;;;;;;;12.65;2.10;;;7.70;99.90;;;9.67;64.54;102554.47;5012686;28;20038;-72
2021/03/19 06:49:01;;;;;;;5.35;2.13;;;8.30;99.90;;;10.51;59.52;102551.38;5026001;28;20045;-74
2021/03/19 06:51:31;;;;;;;6.90;2.88;;;9.10;99.90;;;11.06;57.97;102548.38;5015564;28;20077;-73
2021/03/19 06:54:06;;;;;;;5.30;1.70;;;9.70;99.90;;;12.20;53.29;102549.63;5031539;28;20052;-72
2021/03/19 06:56:33;;;;;;;6.35;1.60;;;10.50;99.90;;;13.03;49.44;102553.84;5033352;28;20032;-74
2021/03/19 06:59:22;;;;;;;5.10;1.45;;;11.30;99.90;;;13.34;48.24;102555.81;5011897;28;20018;-72
2021/03/19 07:01:49;;;;;;;7.80;1.80;;;11.80;99.50;;;13.54;46.76;102559.00;5029533;28;20063;-74
2021/03/19 07:04:45;;;;;;;6.40;1.45;;;12.30;98.40;;;14.28;45.29;102563.84;5015271;28;20447;-73
2021/03/19 07:07:35;;;;;;;6.07;1.83;;;12.70;98.60;;;13.87;44.94;102560.53;5027603;28;20034;-75
2021/03/19 07:10:34;;;;;;;7.53;1.83;;;13.10;96.40;;;14.10;44.08;102561.44;5036072;28;20038;-73
2021/03/19 07:13:24;;;;;;;6.40;1.52;;;13.30;95.90;;;14.98;42.75;102571.84;5017979;28;20442;-73
2021/03/19 07:16:10;;;;;;;4.80;1.65;;;13.50;96.40;;;14.68;43.20;102576.38;5031560;28;20041;-71
2021/03/19 07:18:56;;;;;;;6.53;1.42;;;13.70;95.00;;;15.30;41.54;102569.78;5031533;28;20044;-71
2021/03/19 07:21:49;;;;;;;5.53;1.50;;;14.00;94.30;;;15.44;41.78;102578.00;5046500;28;20033;-73
2021/03/19 07:24:26;;;;;;;10.45;2.30;;;14.20;94.40;;;15.20;41.92;102592.00;5029823;28;20033;-72
2021/03/19 07:27:34;;;;;;;12.55;1.88;;;14.30;93.60;;;15.82;40.26;102586.97;5030283;28;20049;-74
2021/03/19 07:31:06;;;;;;;5.40;1.50;;;14.70;93.30;;;16.21;39.04;102594.84;5032523;28;20060;-72
2021/03/19 07:33:50;;;;;;;7.88;2.53;;;14.80;92.60;;;16.94;38.83;102599.16;5008374;28;20040;-74
2021/03/19 07:36:47;;;;;;;6.97;2.30;;;15.30;92.50;;;15.97;39.22;102595.19;5007841;28;20033;-73
2021/03/19 07:39:41;;;;;;;6.25;2.38;;;15.30;91.40;;;15.69;40.95;102594.22;5025792;28;20383;-72
2021/03/19 07:42:32;;;;;;;5.63;2.33;;;15.30;91.70;;;16.07;40.73;102594.88;5029500;28;20571;-73
2021/03/19 07:45:33;;;;;;;7.20;1.90;;;15.20;92.00;;;15.65;40.20;102612.09;5030876;28;20165;-73
2021/03/19 07:48:18;;;;;;;6.88;1.75;;;15.10;91.90;;;15.69;41.74;102613.44;5028416;28;20037;-70
2021/03/19 07:51:07;;;;;;;11.70;2.03;;;14.80;92.80;;;15.36;41.64;102607.41;5029844;28;20033;-70
2021/03/19 07:53:48;;;;;;;5.68;1.65;;;14.70;92.80;;;15.33;41.56;102618.78;5024110;28;20041;-69
2021/03/19 07:56:39;;;;;;;4.32;2.25;;;14.80;92.80;;;12.47;47.75;102620.31;5016369;28;20041;-70
2021/03/19 07:59:25;;;;;;;5.85;1.88;;;13.90;93.60;;;10.57;55.54;102627.00;5030887;28;20038;-70
2021/03/19 08:02:12;;;;;;;6.32;1.65;;;12.20;97.10;;;10.18;59.29;102626.44;5022182;28;20087;-69
2021/03/19 08:05:19;;;;;;;8.82;1.92;;;11.00;99.90;;;11.20;55.41;102629.53;5021665;28;20515;-69
2021/03/19 08:08:39;;;;;;;6.30;1.58;;;10.90;99.90;;;12.70;51.55;102637.75;5024648;28;20064;-68
2021/03/19 08:11:48;;;;;;;7.47;2.85;;;11.50;99.90;;;13.87;48.17;102634.47;5029501;28;20373;-70
2021/03/19 08:14:41;;;;;;;6.72;1.73;;;12.40;99.20;;;14.23;45.60;102642.13;5035123;28;20029;-70
2021/03/19 08:17:55;;;;;;;4.30;2.22;;;13.40;96.60;;;15.49;43.21;102644.16;5030281;28;20102;-68
2021/03/19 08:20:39;;;;;;;8.13;2.22;;;14.20;95.80;;;15.04;44.04;102641.53;4987961;28;20049;-68
2021/03/19 08:23:23;;;;;;;4.53;1.58;;;14.20;94.80;;;15.43;42.48;102642.19;4956267;28;20493;-69
2021/03/19 08:25:52;;;;;;;3.10;1.50;;;14.50;94.80;;;15.33;42.88;102638.00;5005470;28;20053;-68
2021/03/19 08:28:51;;;;;;;9.77;2.70;;;14.70;94.20;;;16.11;41.43;102630.03;5012447;28;20041;-68
2021/03/19 08:31:41;;;;;;;5.25;2.00;;;15.20;94.10;;;15.93;40.96;102632.31;5027946;28;20087;-69
2021/03/19 08:34:29;;;;;;;3.85;1.40;;;15.40;93.00;;;16.68;40.07;102637.44;5012587;28;20036;-68
2021/03/19 08:36:55;;;;;;;7.60;1.77;;;15.50;92.30;;;16.36;40.38;102640.66;5012656;28;20045;-68
2021/03/19 08:39:43;;;;;;;6.18;2.47;;;15.70;92.20;;;15.61;41.45;102650.91;5031298;28;20045;-67
2021/03/19 08:42:29;;;;;;;5.53;1.98;;;15.80;91.00;;;16.48;40.81;102650.09;5030813;28;20041;-68
2021/03/19 08:44:55;;;;;;;6.72;2.42;;;15.80;92.10;;;15.59;41.93;102660.38;5029830;28;20100;-69
2021/03/19 08:47:50;;;;;;;7.20;2.80;;;16.00;91.40;;;15.79;42.96;102663.41;5011820;28;20049;-68
2021/03/19 08:50:35;;;;;;;7.25;1.88;;;15.80;91.00;;;15.70;41.41;102675.50;5030791;28;20492;-68
2021/03/19 08:53:24;;;;;;;7.78;1.60;;;15.80;91.00;;;14.54;45.14;102667.66;5029479;28;20388;-66
2021/03/19 08:56:18;;;;;;;6.53;1.80;;;14.90;91.80;;;14.46;44.16;102675.91;5031003;28;20052;-68
2021/03/19 08:58:51;;;;;;;7.88;1.75;;;14.60;93.00;;;15.44;41.70;102671.31;5027075;28;20745;-67
2021/03/19 09:01:48;;;;;;;7.20;1.70;;;14.70;92.70;;;13.83;44.80;102682.38;5025153;28;20037;-68
2021/03/19 09:04:15;;;;;;;6.55;1.92;;;14.40;92.50;;;14.60;43.35;102694.31;5017621;28;20107;-68
2021/03/19 09:07:35;;;;;;;7.10;1.58;;;14.30;93.10;;;14.46;41.15;102703.31;5031128;28;20104;-68
2021/03/19 09:10:16;;;;;;;4.50;1.88;;;14.30;91.00;;;14.64;41.61;102698.41;5029876;28;20059;-68
2021/03/19 09:12:57;;;;;;;2.47;1.33;;;14.50;92.00;;;14.06;42.33;102696.16;5023159;28;20034;-71
2021/03/19 09:15:23;;;;;;;7.50;1.80;;;14.20;91.30;;;14.04;43.35;102703.69;5020589;28;20033;-66
2021/03/19 09:17:57;;;;;;;9.25;1.70;;;13.90;92.40;;;14.78;43.29;102694.91;5044505;28;20537;-67
2021/03/19 09:20:39;;;;;;;7.45;2.15;;;14.10;93.50;;;13.83;45.72;102704.28;5026767;28;20038;-67
2021/03/19 09:23:18;;;;;;;5.03;2.20;;;13.80;93.90;;;13.28;45.74;102709.69;5009770;28;20038;-68
2021/03/19 09:26:19;;;;;;;9.80;1.77;;;13.50;93.70;;;14.79;40.96;102699.31;5011318;28;20021;-66
2021/03/19 09:29:13;;;;;;;5.40;2.10;;;14.20;91.70;;;15.60;39.18;102709.59;5034108;28;20029;-67
2021/03/19 09:31:49;;;;;;;6.18;1.58;;;15.00;90.80;;;14.31;40.37;102694.16;5029715;28;20417;-67
2021/03/19 09:34:41;;;;;;;10.27;2.00;;;14.80;88.10;;;12.49;47.20;102716.63;5015791;28;20488;-67
2021/03/19 09:37:30;;;;;;;7.25;2.10;;;13.70;91.90;;;11.95;48.37;102718.81;5034667;28;20153;-68
2021/03/19 09:40:08;;;;;;;3.85;1.92;;;12.70;93.70;;;12.70;45.52;102707.94;5028613;28;20392;-67
2021/03/19 09:42:47;;;;;;;6.13;2.00;;;12.60;93.80;;;13.57;43.57;102717.34;5047706;28;20124;-69
2021/03/19 09:45:13;;;;;;;6.35;2.38;;;13.00;94.10;;;14.89;42.05;102712.81;5031228;28;20038;-69
2021/03/19 09:48:00;;;;;;;6.25;2.08;;;13.70;93.90;;;14.86;42.02;102719.50;5031640;28;20030;-67
2021/03/19 09:50:34;;;;;;;5.28;2.05;;;14.60;92.10;;;16.45;38.32;102720.06;5032521;28;20041;-63
2021/03/19 09:53:23;;;;;;;5.60;1.80;;;15.40;90.50;;;16.38;36.78;102715.50;5002858;28;20047;-68
2021/03/19 09:55:53;;;;;;;7.05;2.47;;;15.90;84.90;;;16.44;36.26;102712.88;5017037;28;20389;-67
2021/03/19 09:58:40;;;;;;;3.45;1.65;;;16.10;82.50;;;16.62;34.57;102726.19;5033485;28;20069;-67
2021/03/19 10:01:30;;;;;;;3.13;1.60;;;16.50;79.10;;;16.14;35.52;102728.53;5032456;28;20033;-64
2021/03/19 10:04:03;;;;;;;6.05;2.13;;;16.10;78.50;;;16.64;31.86;102735.97;5046817;28;20040;-66
2021/03/19 10:06:35;;;;;;;3.90;1.90;;;16.10;70.10;;;16.11;31.84;102737.19;5032318;28;20522;-67
2021/03/19 10:09:13;;;;;;;3.25;1.95;;;16.20;65.90;;;14.98;33.27;102730.06;5037889;28;20029;-68
2021/03/19 10:12:18;;;;;;;5.57;1.83;;;15.70;65.80;;;14.66;35.20;102737.47;5026810;28;20205;-66
2021/03/19 10:14:51;;;;;;;2.90;1.55;;;15.00;69.50;;;14.33;36.12;102741.41;5031788;28;20083;-67
2021/03/19 10:17:28;;;;;;;5.72;2.63;;;14.80;73.30;;;14.53;37.08;102745.44;5028231;28;20058;-68
2021/03/19 10:20:27;;;;;;;4.20;1.73;;;14.60;76.80;;;14.64;37.37;102742.28;5046799;28;20068;-67
2021/03/19 10:23:08;;;;;;;3.33;1.08;;;14.40;79.10;;;15.08;32.95;102769.06;4992437;28;20049;-66
2021/03/19 10:25:45;;;;;;;1.85;1.30;;;14.80;69.90;;;14.08;34.93;102737.91;5023863;28;20037;-66
2021/03/19 10:28:17;;;;;;;2.28;1.60;;;14.50;70.00;;;13.94;35.45;102753.19;5013391;28;20040;-64
2021/03/19 10:31:00;;;;;;;7.00;1.60;;;14.20;71.80;;;13.75;36.79;102743.47;5033506;28;20120;-63
2021/03/19 10:33:58;;;;;;;2.55;1.90;;;14.00;74.10;;;13.07;37.95;102748.47;5038792;28;20041;-65
2021/03/19 10:36:49;;;;;;;3.20;1.30;;;13.60;74.80;;;11.69;39.48;102749.84;5031420;28;20075;-66
2021/03/19 10:39:53;;;;;;;3.75;1.42;;;12.80;76.80;;;10.10;44.43;102737.91;5047676;28;20072;-64
2021/03/19 10:43:15;;;;;;;4.55;1.88;;;11.60;86.00;;;9.33;48.44;102747.16;4997603;28;20532;-63
2021/03/19 10:45:59;;;;;;;5.28;1.65;;;10.50;91.00;;;9.22;48.98;102732.88;4992987;28;20029;-65
2021/03/19 10:48:44;;;;;;;;;;;9.90;93.40;;;9.09;49.04;102739.47;4993486;28;20046;-68
2021/03/19 10:51:45;;;;;;;2.47;1.40;;;9.70;94.40;;;9.16;54.03;102742.44;5013249;28;19955;-66
2021/03/19 10:54:25;;;;;;;3.97;2.00;;;9.50;95.40;;;8.89;50.92;102748.63;5026056;28;20040;-65
2021/03/19 10:56:59;;;;;;;4.90;2.00;;;9.40;96.60;;;8.95;51.30;102739.91;5030128;28;20040;-65
2021/03/19 10:59:28;;;;;;;6.18;2.00;;;9.20;96.80;;;8.89;51.17;102740.47;5030314;28;20056;-66
2021/03/19 11:02:07;;;;;;;2.67;1.45;;;9.20;97.10;;;8.70;51.97;102745.88;5028278;28;20088;-65
2021/03/19 11:04:39;;;;;;;11.68;2.83;;;9.10;97.20;;;8.57;52.65;102748.91;5014672;28;20395;-67
2021/03/19 11:07:29;;;;;;;7.38;2.25;;;9.00;97.10;;;8.76;51.78;102750.75;5021810;28;20476;-65